sensor_id;sensor_type;location;lat;lon;timestamp;P1;durP1;ratioP1;P2;durP2;ratioP2
6195;SDS011;3131;42.630;23.382;2023-09-19T00:02:26;8.10;;;4.77;;
6195;SDS011;3131;42.630;23.382;2023-09-19T00:04:55;7.13;;;4.63;;
6195;SDS011;3131;42.630;23.382;2023-09-19T00:07:23;6.53;;;4.27;;
6195;SDS011;3131;42.630;23.382;2023-09-19T00:09:51;6.30;;;4.20;;
6195;SDS011;3131;42.630;23.382;2023-09-19T00:12:19;7.23;;;4.10;;
6195;SDS011;3131;42.630;23.382;2023-09-19T00:14:47;7.17;;;4.03;;
6195;SDS011;3131;42.630;23.382;2023-09-19T00:17:14;4.83;;;3.80;;
6195;SDS011;3131;42.630;23.382;2023-09-19T00:19:42;5.40;;;4.73;;
6195;SDS011;3131;42.630;23.382;2023-09-19T00:22:10;7.30;;;4.10;;
6195;SDS011;3131;42.630;23.382;2023-09-19T00:24:39;11.47;;;4.93;;
6195;SDS011;3131;42.630;23.382;2023-09-19T00:27:07;5.93;;;4.37;;
6195;SDS011;3131;42.630;23.382;2023-09-19T00:29:35;5.90;;;4.03;;
6195;SDS011;3131;42.630;23.382;2023-09-19T00:32:04;5.43;;;4.17;;
6195;SDS011;3131;42.630;23.382;2023-09-19T00:34:32;5.50;;;4.37;;
6195;SDS011;3131;42.630;23.382;2023-09-19T00:37:00;7.57;;;4.73;;
6195;SDS011;3131;42.630;23.382;2023-09-19T00:39:28;4.87;;;4.33;;
6195;SDS011;3131;42.630;23.382;2023-09-19T00:41:57;6.60;;;4.83;;
6195;SDS011;3131;42.630;23.382;2023-09-19T00:44:26;11.80;;;5.17;;
6195;SDS011;3131;42.630;23.382;2023-09-19T00:46:54;5.77;;;4.27;;
6195;SDS011;3131;42.630;23.382;2023-09-19T00:49:21;6.40;;;4.80;;
6195;SDS011;3131;42.630;23.382;2023-09-19T00:51:49;8.30;;;4.57;;
6195;SDS011;3131;42.630;23.382;2023-09-19T00:54:17;8.97;;;5.00;;
6195;SDS011;3131;42.630;23.382;2023-09-19T00:56:46;10.27;;;4.83;;
6195;SDS011;3131;42.630;23.382;2023-09-19T00:59:15;7.53;;;4.37;;
6195;SDS011;3131;42.630;23.382;2023-09-19T01:01:42;5.73;;;4.60;;
6195;SDS011;3131;42.630;23.382;2023-09-19T01:04:12;11.07;;;5.10;;
6195;SDS011;3131;42.630;23.382;2023-09-19T01:06:39;8.47;;;5.33;;
6195;SDS011;3131;42.630;23.382;2023-09-19T01:09:07;6.10;;;4.90;;
6195;SDS011;3131;42.630;23.382;2023-09-19T01:11:37;9.20;;;4.93;;
6195;SDS011;3131;42.630;23.382;2023-09-19T01:14:15;7.40;;;5.20;;
6195;SDS011;3131;42.630;23.382;2023-09-19T01:16:40;10.70;;;5.13;;
6195;SDS011;3131;42.630;23.382;2023-09-19T01:19:16;9.30;;;5.17;;
6195;SDS011;3131;42.630;23.382;2023-09-19T01:21:44;8.70;;;5.47;;
6195;SDS011;3131;42.630;23.382;2023-09-19T01:24:27;9.37;;;4.97;;
6195;SDS011;3131;42.630;23.382;2023-09-19T01:27:00;10.07;;;6.03;;
6195;SDS011;3131;42.630;23.382;2023-09-19T01:29:31;12.67;;;5.90;;
6195;SDS011;3131;42.630;23.382;2023-09-19T01:31:58;6.67;;;5.67;;
6195;SDS011;3131;42.630;23.382;2023-09-19T01:34:27;11.10;;;5.53;;
6195;SDS011;3131;42.630;23.382;2023-09-19T01:36:55;8.07;;;5.50;;
6195;SDS011;3131;42.630;23.382;2023-09-19T01:39:23;10.60;;;5.13;;
6195;SDS011;3131;42.630;23.382;2023-09-19T01:41:54;7.90;;;5.40;;
6195;SDS011;3131;42.630;23.382;2023-09-19T01:44:24;7.90;;;5.27;;
6195;SDS011;3131;42.630;23.382;2023-09-19T01:46:52;7.83;;;5.63;;
6195;SDS011;3131;42.630;23.382;2023-09-19T01:49:25;6.53;;;5.20;;
6195;SDS011;3131;42.630;23.382;2023-09-19T01:51:52;11.50;;;5.27;;
6195;SDS011;3131;42.630;23.382;2023-09-19T01:54:24;6.03;;;5.07;;
6195;SDS011;3131;42.630;23.382;2023-09-19T01:56:53;7.50;;;5.00;;
6195;SDS011;3131;42.630;23.382;2023-09-19T01:59:22;6.67;;;5.30;;
6195;SDS011;3131;42.630;23.382;2023-09-19T02:01:50;6.53;;;5.00;;
6195;SDS011;3131;42.630;23.382;2023-09-19T02:04:18;7.93;;;5.17;;
6195;SDS011;3131;42.630;23.382;2023-09-19T02:06:46;7.83;;;5.10;;
6195;SDS011;3131;42.630;23.382;2023-09-19T02:09:14;8.10;;;5.30;;
6195;SDS011;3131;42.630;23.382;2023-09-19T02:11:42;7.00;;;5.70;;
6195;SDS011;3131;42.630;23.382;2023-09-19T02:14:09;8.37;;;5.13;;
6195;SDS011;3131;42.630;23.382;2023-09-19T02:16:37;7.57;;;5.10;;
6195;SDS011;3131;42.630;23.382;2023-09-19T02:19:04;7.60;;;5.50;;
6195;SDS011;3131;42.630;23.382;2023-09-19T02:21:32;8.63;;;5.17;;
6195;SDS011;3131;42.630;23.382;2023-09-19T02:23:59;7.23;;;5.00;;
6195;SDS011;3131;42.630;23.382;2023-09-19T02:26:27;8.87;;;5.50;;
6195;SDS011;3131;42.630;23.382;2023-09-19T02:28:55;13.13;;;5.33;;
6195;SDS011;3131;42.630;23.382;2023-09-19T02:31:22;10.83;;;5.43;;
6195;SDS011;3131;42.630;23.382;2023-09-19T02:33:50;9.80;;;5.17;;
6195;SDS011;3131;42.630;23.382;2023-09-19T02:36:18;11.50;;;5.60;;
6195;SDS011;3131;42.630;23.382;2023-09-19T02:38:46;11.93;;;5.00;;
6195;SDS011;3131;42.630;23.382;2023-09-19T02:41:14;7.30;;;5.37;;
6195;SDS011;3131;42.630;23.382;2023-09-19T02:43:42;8.17;;;5.10;;
6195;SDS011;3131;42.630;23.382;2023-09-19T02:46:10;6.97;;;5.13;;
6195;SDS011;3131;42.630;23.382;2023-09-19T02:48:39;8.77;;;5.43;;
6195;SDS011;3131;42.630;23.382;2023-09-19T02:51:07;8.00;;;5.37;;
6195;SDS011;3131;42.630;23.382;2023-09-19T02:53:35;8.03;;;5.47;;
6195;SDS011;3131;42.630;23.382;2023-09-19T02:56:03;11.63;;;5.67;;
6195;SDS011;3131;42.630;23.382;2023-09-19T02:58:31;8.47;;;5.73;;
6195;SDS011;3131;42.630;23.382;2023-09-19T03:01:08;8.50;;;5.30;;
6195;SDS011;3131;42.630;23.382;2023-09-19T03:03:35;13.27;;;6.13;;
6195;SDS011;3131;42.630;23.382;2023-09-19T03:06:03;8.77;;;6.03;;
6195;SDS011;3131;42.630;23.382;2023-09-19T03:08:32;9.27;;;5.70;;
6195;SDS011;3131;42.630;23.382;2023-09-19T03:11:01;10.43;;;6.07;;
6195;SDS011;3131;42.630;23.382;2023-09-19T03:13:30;10.47;;;7.37;;
6195;SDS011;3131;42.630;23.382;2023-09-19T03:15:58;7.83;;;5.67;;
6195;SDS011;3131;42.630;23.382;2023-09-19T03:18:26;7.43;;;6.20;;
6195;SDS011;3131;42.630;23.382;2023-09-19T03:20:53;20.30;;;5.80;;
6195;SDS011;3131;42.630;23.382;2023-09-19T03:23:21;9.87;;;6.53;;
6195;SDS011;3131;42.630;23.382;2023-09-19T03:25:49;9.37;;;6.00;;
6195;SDS011;3131;42.630;23.382;2023-09-19T03:28:18;11.90;;;6.60;;
6195;SDS011;3131;42.630;23.382;2023-09-19T03:30:57;9.53;;;5.93;;
6195;SDS011;3131;42.630;23.382;2023-09-19T03:33:25;12.60;;;6.93;;
6195;SDS011;3131;42.630;23.382;2023-09-19T03:35:53;14.20;;;7.13;;
6195;SDS011;3131;42.630;23.382;2023-09-19T03:38:21;20.37;;;12.00;;
6195;SDS011;3131;42.630;23.382;2023-09-19T03:40:49;18.03;;;11.73;;
6195;SDS011;3131;42.630;23.382;2023-09-19T03:43:16;14.20;;;6.70;;
6195;SDS011;3131;42.630;23.382;2023-09-19T03:45:45;9.80;;;5.70;;
6195;SDS011;3131;42.630;23.382;2023-09-19T03:48:13;10.53;;;6.33;;
6195;SDS011;3131;42.630;23.382;2023-09-19T03:50:41;7.87;;;6.50;;
6195;SDS011;3131;42.630;23.382;2023-09-19T03:53:10;10.40;;;6.67;;
6195;SDS011;3131;42.630;23.382;2023-09-19T03:55:37;9.60;;;6.07;;
6195;SDS011;3131;42.630;23.382;2023-09-19T03:58:05;13.70;;;5.97;;
6195;SDS011;3131;42.630;23.382;2023-09-19T04:00:33;9.83;;;6.13;;
6195;SDS011;3131;42.630;23.382;2023-09-19T04:03:04;11.63;;;5.73;;
6195;SDS011;3131;42.630;23.382;2023-09-19T04:05:33;11.43;;;6.23;;
6195;SDS011;3131;42.630;23.382;2023-09-19T04:08:03;10.10;;;6.60;;
6195;SDS011;3131;42.630;23.382;2023-09-19T04:10:34;12.03;;;7.10;;
6195;SDS011;3131;42.630;23.382;2023-09-19T04:13:02;13.47;;;5.73;;
6195;SDS011;3131;42.630;23.382;2023-09-19T04:15:31;21.07;;;7.47;;
6195;SDS011;3131;42.630;23.382;2023-09-19T04:17:58;26.33;;;7.17;;
6195;SDS011;3131;42.630;23.382;2023-09-19T04:20:26;14.90;;;7.60;;
6195;SDS011;3131;42.630;23.382;2023-09-19T04:22:53;14.37;;;6.57;;
6195;SDS011;3131;42.630;23.382;2023-09-19T04:25:21;12.00;;;6.87;;
6195;SDS011;3131;42.630;23.382;2023-09-19T04:27:49;14.23;;;6.43;;
6195;SDS011;3131;42.630;23.382;2023-09-19T04:30:17;12.37;;;8.07;;
6195;SDS011;3131;42.630;23.382;2023-09-19T04:32:44;16.40;;;8.20;;
6195;SDS011;3131;42.630;23.382;2023-09-19T04:35:13;10.90;;;7.60;;
6195;SDS011;3131;42.630;23.382;2023-09-19T04:37:41;15.20;;;7.97;;
6195;SDS011;3131;42.630;23.382;2023-09-19T04:40:09;13.83;;;7.90;;
6195;SDS011;3131;42.630;23.382;2023-09-19T04:42:39;19.60;;;8.40;;
6195;SDS011;3131;42.630;23.382;2023-09-19T04:45:07;14.07;;;8.70;;
6195;SDS011;3131;42.630;23.382;2023-09-19T04:47:36;28.43;;;8.93;;
6195;SDS011;3131;42.630;23.382;2023-09-19T04:50:09;37.80;;;9.73;;
6195;SDS011;3131;42.630;23.382;2023-09-19T04:52:40;18.37;;;8.80;;
6195;SDS011;3131;42.630;23.382;2023-09-19T04:55:10;18.07;;;8.77;;
6195;SDS011;3131;42.630;23.382;2023-09-19T04:57:39;19.17;;;10.70;;
6195;SDS011;3131;42.630;23.382;2023-09-19T05:00:07;13.87;;;9.53;;
6195;SDS011;3131;42.630;23.382;2023-09-19T05:02:36;14.97;;;8.67;;
6195;SDS011;3131;42.630;23.382;2023-09-19T05:05:05;17.60;;;8.73;;
6195;SDS011;3131;42.630;23.382;2023-09-19T05:07:33;17.00;;;7.17;;
6195;SDS011;3131;42.630;23.382;2023-09-19T05:10:01;14.03;;;6.50;;
6195;SDS011;3131;42.630;23.382;2023-09-19T05:12:30;14.33;;;6.37;;
6195;SDS011;3131;42.630;23.382;2023-09-19T05:14:58;10.77;;;5.80;;
6195;SDS011;3131;42.630;23.382;2023-09-19T05:17:25;9.93;;;5.73;;
6195;SDS011;3131;42.630;23.382;2023-09-19T05:19:53;8.63;;;5.87;;
6195;SDS011;3131;42.630;23.382;2023-09-19T05:22:21;9.17;;;5.67;;
6195;SDS011;3131;42.630;23.382;2023-09-19T05:24:50;13.37;;;5.77;;
6195;SDS011;3131;42.630;23.382;2023-09-19T05:27:19;15.30;;;6.70;;
6195;SDS011;3131;42.630;23.382;2023-09-19T05:29:47;8.20;;;5.93;;
6195;SDS011;3131;42.630;23.382;2023-09-19T05:32:15;17.10;;;5.67;;
6195;SDS011;3131;42.630;23.382;2023-09-19T05:34:44;11.47;;;5.50;;
6195;SDS011;3131;42.630;23.382;2023-09-19T05:37:13;18.03;;;5.37;;
6195;SDS011;3131;42.630;23.382;2023-09-19T05:39:42;15.17;;;6.40;;
6195;SDS011;3131;42.630;23.382;2023-09-19T05:42:10;11.30;;;6.10;;
6195;SDS011;3131;42.630;23.382;2023-09-19T05:44:38;11.93;;;6.73;;
6195;SDS011;3131;42.630;23.382;2023-09-19T05:47:06;15.17;;;6.03;;
6195;SDS011;3131;42.630;23.382;2023-09-19T05:49:35;19.27;;;6.07;;
6195;SDS011;3131;42.630;23.382;2023-09-19T05:52:05;13.50;;;5.60;;
6195;SDS011;3131;42.630;23.382;2023-09-19T05:54:34;12.87;;;6.50;;
6195;SDS011;3131;42.630;23.382;2023-09-19T05:57:04;11.83;;;7.10;;
6195;SDS011;3131;42.630;23.382;2023-09-19T05:59:32;15.70;;;5.77;;
6195;SDS011;3131;42.630;23.382;2023-09-19T06:02:00;13.63;;;7.20;;
6195;SDS011;3131;42.630;23.382;2023-09-19T06:04:27;12.00;;;5.30;;
6195;SDS011;3131;42.630;23.382;2023-09-19T06:06:56;12.83;;;5.50;;
6195;SDS011;3131;42.630;23.382;2023-09-19T06:09:24;8.93;;;5.30;;
6195;SDS011;3131;42.630;23.382;2023-09-19T06:11:53;11.40;;;5.43;;
6195;SDS011;3131;42.630;23.382;2023-09-19T06:14:23;9.43;;;6.30;;
6195;SDS011;3131;42.630;23.382;2023-09-19T06:16:51;15.07;;;6.40;;
6195;SDS011;3131;42.630;23.382;2023-09-19T06:19:20;7.13;;;5.10;;
6195;SDS011;3131;42.630;23.382;2023-09-19T06:21:48;7.53;;;4.90;;
6195;SDS011;3131;42.630;23.382;2023-09-19T06:24:16;10.57;;;5.20;;
6195;SDS011;3131;42.630;23.382;2023-09-19T06:26:45;25.20;;;7.10;;
6195;SDS011;3131;42.630;23.382;2023-09-19T06:29:13;7.87;;;5.80;;
6195;SDS011;3131;42.630;23.382;2023-09-19T06:31:41;10.10;;;5.20;;
6195;SDS011;3131;42.630;23.382;2023-09-19T06:34:10;8.53;;;5.30;;
6195;SDS011;3131;42.630;23.382;2023-09-19T06:36:39;10.17;;;5.40;;
6195;SDS011;3131;42.630;23.382;2023-09-19T06:39:07;9.37;;;5.10;;
6195;SDS011;3131;42.630;23.382;2023-09-19T06:41:37;14.37;;;5.07;;
6195;SDS011;3131;42.630;23.382;2023-09-19T06:44:05;15.77;;;5.90;;
6195;SDS011;3131;42.630;23.382;2023-09-19T06:46:33;12.60;;;5.00;;
6195;SDS011;3131;42.630;23.382;2023-09-19T06:49:02;7.97;;;5.20;;
6195;SDS011;3131;42.630;23.382;2023-09-19T06:51:31;7.97;;;4.83;;
6195;SDS011;3131;42.630;23.382;2023-09-19T06:54:01;9.70;;;5.77;;
6195;SDS011;3131;42.630;23.382;2023-09-19T06:56:30;10.07;;;5.23;;
6195;SDS011;3131;42.630;23.382;2023-09-19T06:58:59;7.23;;;4.73;;
6195;SDS011;3131;42.630;23.382;2023-09-19T07:01:28;16.10;;;5.93;;
6195;SDS011;3131;42.630;23.382;2023-09-19T07:03:58;6.83;;;4.60;;
6195;SDS011;3131;42.630;23.382;2023-09-19T07:06:25;10.50;;;5.00;;
6195;SDS011;3131;42.630;23.382;2023-09-19T07:08:53;8.97;;;4.80;;
6195;SDS011;3131;42.630;23.382;2023-09-19T07:11:21;10.77;;;4.90;;
6195;SDS011;3131;42.630;23.382;2023-09-19T07:13:49;12.63;;;5.17;;
6195;SDS011;3131;42.630;23.382;2023-09-19T07:16:17;7.70;;;5.20;;
6195;SDS011;3131;42.630;23.382;2023-09-19T07:18:47;8.87;;;5.50;;
6195;SDS011;3131;42.630;23.382;2023-09-19T07:21:14;9.70;;;4.90;;
6195;SDS011;3131;42.630;23.382;2023-09-19T07:23:42;25.97;;;6.97;;
6195;SDS011;3131;42.630;23.382;2023-09-19T07:26:09;9.03;;;5.00;;
6195;SDS011;3131;42.630;23.382;2023-09-19T07:28:37;9.53;;;5.13;;
6195;SDS011;3131;42.630;23.382;2023-09-19T07:31:05;10.97;;;4.73;;
6195;SDS011;3131;42.630;23.382;2023-09-19T07:33:34;7.50;;;4.97;;
6195;SDS011;3131;42.630;23.382;2023-09-19T07:36:02;10.93;;;5.17;;
6195;SDS011;3131;42.630;23.382;2023-09-19T07:38:30;8.03;;;4.43;;
6195;SDS011;3131;42.630;23.382;2023-09-19T07:41:00;25.10;;;6.17;;
6195;SDS011;3131;42.630;23.382;2023-09-19T07:43:28;16.90;;;5.03;;
6195;SDS011;3131;42.630;23.382;2023-09-19T07:45:56;8.87;;;4.80;;
6195;SDS011;3131;42.630;23.382;2023-09-19T07:48:26;8.77;;;5.10;;
6195;SDS011;3131;42.630;23.382;2023-09-19T07:50:53;8.77;;;5.53;;
6195;SDS011;3131;42.630;23.382;2023-09-19T07:53:21;10.17;;;5.73;;
6195;SDS011;3131;42.630;23.382;2023-09-19T07:55:49;11.33;;;5.60;;
6195;SDS011;3131;42.630;23.382;2023-09-19T07:58:16;12.47;;;5.63;;
6195;SDS011;3131;42.630;23.382;2023-09-19T08:00:44;14.53;;;5.43;;
6195;SDS011;3131;42.630;23.382;2023-09-19T08:03:12;6.83;;;4.60;;
6195;SDS011;3131;42.630;23.382;2023-09-19T08:05:40;13.10;;;4.77;;
6195;SDS011;3131;42.630;23.382;2023-09-19T08:08:09;14.53;;;5.10;;
6195;SDS011;3131;42.630;23.382;2023-09-19T08:10:39;14.33;;;5.30;;
6195;SDS011;3131;42.630;23.382;2023-09-19T08:13:08;7.17;;;5.23;;
6195;SDS011;3131;42.630;23.382;2023-09-19T08:15:40;12.10;;;5.60;;
6195;SDS011;3131;42.630;23.382;2023-09-19T08:18:06;12.30;;;5.27;;
6195;SDS011;3131;42.630;23.382;2023-09-19T08:20:36;14.77;;;5.37;;
6195;SDS011;3131;42.630;23.382;2023-09-19T08:23:04;13.67;;;4.77;;
6195;SDS011;3131;42.630;23.382;2023-09-19T08:25:32;8.70;;;5.10;;
6195;SDS011;3131;42.630;23.382;2023-09-19T08:27:59;14.37;;;6.50;;
6195;SDS011;3131;42.630;23.382;2023-09-19T08:30:29;14.03;;;5.43;;
6195;SDS011;3131;42.630;23.382;2023-09-19T08:32:57;18.37;;;6.07;;
6195;SDS011;3131;42.630;23.382;2023-09-19T08:35:25;11.93;;;5.80;;
6195;SDS011;3131;42.630;23.382;2023-09-19T08:37:53;9.37;;;4.23;;
6195;SDS011;3131;42.630;23.382;2023-09-19T08:40:21;12.23;;;5.40;;
6195;SDS011;3131;42.630;23.382;2023-09-19T08:42:49;15.93;;;5.50;;
6195;SDS011;3131;42.630;23.382;2023-09-19T08:45:17;7.83;;;4.53;;
6195;SDS011;3131;42.630;23.382;2023-09-19T08:47:46;6.87;;;4.23;;
6195;SDS011;3131;42.630;23.382;2023-09-19T08:50:17;7.17;;;4.50;;
6195;SDS011;3131;42.630;23.382;2023-09-19T08:52:46;9.47;;;4.67;;
6195;SDS011;3131;42.630;23.382;2023-09-19T08:55:14;11.17;;;5.23;;
6195;SDS011;3131;42.630;23.382;2023-09-19T08:57:44;5.70;;;4.27;;
6195;SDS011;3131;42.630;23.382;2023-09-19T09:00:14;5.67;;;3.90;;
6195;SDS011;3131;42.630;23.382;2023-09-19T09:02:43;6.87;;;4.57;;
6195;SDS011;3131;42.630;23.382;2023-09-19T09:05:11;7.80;;;4.40;;
6195;SDS011;3131;42.630;23.382;2023-09-19T09:07:40;6.17;;;4.30;;
6195;SDS011;3131;42.630;23.382;2023-09-19T09:10:08;7.60;;;4.40;;
6195;SDS011;3131;42.630;23.382;2023-09-19T09:12:36;6.57;;;4.57;;
6195;SDS011;3131;42.630;23.382;2023-09-19T09:15:06;7.47;;;4.47;;
6195;SDS011;3131;42.630;23.382;2023-09-19T09:17:35;14.00;;;4.13;;
6195;SDS011;3131;42.630;23.382;2023-09-19T09:20:03;8.33;;;4.50;;
6195;SDS011;3131;42.630;23.382;2023-09-19T09:22:32;10.37;;;4.63;;
6195;SDS011;3131;42.630;23.382;2023-09-19T09:25:00;10.47;;;4.87;;
6195;SDS011;3131;42.630;23.382;2023-09-19T09:27:29;8.53;;;4.07;;
6195;SDS011;3131;42.630;23.382;2023-09-19T09:29:58;6.07;;;4.23;;
6195;SDS011;3131;42.630;23.382;2023-09-19T09:32:29;6.90;;;4.07;;
6195;SDS011;3131;42.630;23.382;2023-09-19T09:37:47;8.17;;;4.27;;
6195;SDS011;3131;42.630;23.382;2023-09-19T09:40:17;6.80;;;4.13;;
6195;SDS011;3131;42.630;23.382;2023-09-19T09:42:47;8.83;;;4.13;;
6195;SDS011;3131;42.630;23.382;2023-09-19T09:45:17;8.20;;;4.30;;
6195;SDS011;3131;42.630;23.382;2023-09-19T09:47:48;7.50;;;4.70;;
6195;SDS011;3131;42.630;23.382;2023-09-19T09:50:25;6.30;;;4.50;;
6195;SDS011;3131;42.630;23.382;2023-09-19T09:52:55;8.17;;;4.40;;
6195;SDS011;3131;42.630;23.382;2023-09-19T09:55:27;8.90;;;4.90;;
6195;SDS011;3131;42.630;23.382;2023-09-19T09:58:03;9.93;;;4.30;;
6195;SDS011;3131;42.630;23.382;2023-09-19T10:00:34;10.53;;;4.27;;
6195;SDS011;3131;42.630;23.382;2023-09-19T10:03:04;8.98;;;4.40;;
6195;SDS011;3131;42.630;23.382;2023-09-19T10:05:33;8.57;;;4.00;;
6195;SDS011;3131;42.630;23.382;2023-09-19T10:08:10;7.57;;;4.63;;
6195;SDS011;3131;42.630;23.382;2023-09-19T10:10:39;6.00;;;3.93;;
6195;SDS011;3131;42.630;23.382;2023-09-19T10:13:13;12.33;;;4.33;;
6195;SDS011;3131;42.630;23.382;2023-09-19T10:15:42;11.03;;;4.47;;
6195;SDS011;3131;42.630;23.382;2023-09-19T10:18:11;12.87;;;4.57;;
6195;SDS011;3131;42.630;23.382;2023-09-19T10:20:41;9.37;;;4.87;;
6195;SDS011;3131;42.630;23.382;2023-09-19T10:23:10;16.30;;;5.13;;
6195;SDS011;3131;42.630;23.382;2023-09-19T10:25:40;11.07;;;4.63;;
6195;SDS011;3131;42.630;23.382;2023-09-19T10:28:08;8.37;;;4.30;;
6195;SDS011;3131;42.630;23.382;2023-09-19T10:30:38;9.93;;;4.70;;
6195;SDS011;3131;42.630;23.382;2023-09-19T10:33:09;8.97;;;4.37;;
6195;SDS011;3131;42.630;23.382;2023-09-19T10:35:37;16.03;;;5.10;;
6195;SDS011;3131;42.630;23.382;2023-09-19T10:38:06;5.03;;;4.27;;
6195;SDS011;3131;42.630;23.382;2023-09-19T10:40:35;15.27;;;5.43;;
6195;SDS011;3131;42.630;23.382;2023-09-19T10:43:05;7.40;;;4.37;;
6195;SDS011;3131;42.630;23.382;2023-09-19T10:45:33;10.40;;;4.47;;
6195;SDS011;3131;42.630;23.382;2023-09-19T10:48:02;11.00;;;4.87;;
6195;SDS011;3131;42.630;23.382;2023-09-19T10:50:32;10.20;;;4.57;;
6195;SDS011;3131;42.630;23.382;2023-09-19T10:53:01;9.67;;;4.83;;
6195;SDS011;3131;42.630;23.382;2023-09-19T10:55:31;27.57;;;6.63;;
6195;SDS011;3131;42.630;23.382;2023-09-19T10:58:01;9.83;;;4.70;;
6195;SDS011;3131;42.630;23.382;2023-09-19T11:00:30;10.53;;;3.97;;
6195;SDS011;3131;42.630;23.382;2023-09-19T11:03:18;7.30;;;4.40;;
6195;SDS011;3131;42.630;23.382;2023-09-19T11:06:03;4.80;;;4.13;;
6195;SDS011;3131;42.630;23.382;2023-09-19T11:11:45;9.80;;;4.60;;
6195;SDS011;3131;42.630;23.382;2023-09-19T11:14:14;10.13;;;4.53;;
6195;SDS011;3131;42.630;23.382;2023-09-19T11:16:59;11.67;;;4.47;;
6195;SDS011;3131;42.630;23.382;2023-09-19T11:19:41;9.97;;;4.80;;
6195;SDS011;3131;42.630;23.382;2023-09-19T11:22:10;10.97;;;4.93;;
6195;SDS011;3131;42.630;23.382;2023-09-19T11:24:39;9.80;;;5.13;;
6195;SDS011;3131;42.630;23.382;2023-09-19T11:27:12;13.57;;;4.80;;
6195;SDS011;3131;42.630;23.382;2023-09-19T11:29:40;11.63;;;5.00;;
6195;SDS011;3131;42.630;23.382;2023-09-19T11:32:08;12.83;;;4.80;;
6195;SDS011;3131;42.630;23.382;2023-09-19T11:40:06;7.00;;;4.33;;
6195;SDS011;3131;42.630;23.382;2023-09-19T11:42:42;5.40;;;4.37;;
6195;SDS011;3131;42.630;23.382;2023-09-19T11:47:56;16.43;;;4.87;;
6195;SDS011;3131;42.630;23.382;2023-09-19T11:50:26;15.80;;;4.70;;
6195;SDS011;3131;42.630;23.382;2023-09-19T11:52:55;7.00;;;4.00;;
6195;SDS011;3131;42.630;23.382;2023-09-19T11:55:22;6.87;;;4.40;;
6195;SDS011;3131;42.630;23.382;2023-09-19T11:57:52;12.63;;;4.87;;
6195;SDS011;3131;42.630;23.382;2023-09-19T12:00:20;14.63;;;4.67;;
6195;SDS011;3131;42.630;23.382;2023-09-19T12:02:48;8.03;;;4.30;;
6195;SDS011;3131;42.630;23.382;2023-09-19T12:05:19;7.93;;;4.63;;
6195;SDS011;3131;42.630;23.382;2023-09-19T12:07:48;5.73;;;3.90;;
6195;SDS011;3131;42.630;23.382;2023-09-19T12:10:16;8.63;;;4.40;;
6195;SDS011;3131;42.630;23.382;2023-09-19T12:12:47;7.30;;;4.50;;
6195;SDS011;3131;42.630;23.382;2023-09-19T12:15:17;6.57;;;4.07;;
6195;SDS011;3131;42.630;23.382;2023-09-19T12:17:44;6.73;;;4.20;;
6195;SDS011;3131;42.630;23.382;2023-09-19T12:20:11;10.07;;;4.17;;
6195;SDS011;3131;42.630;23.382;2023-09-19T12:22:40;11.53;;;4.97;;
6195;SDS011;3131;42.630;23.382;2023-09-19T12:25:09;13.30;;;4.53;;
6195;SDS011;3131;42.630;23.382;2023-09-19T12:27:42;8.17;;;4.60;;
6195;SDS011;3131;42.630;23.382;2023-09-19T12:30:11;4.33;;;3.73;;
6195;SDS011;3131;42.630;23.382;2023-09-19T12:32:40;7.97;;;4.20;;
6195;SDS011;3131;42.630;23.382;2023-09-19T12:35:08;14.57;;;5.43;;
6195;SDS011;3131;42.630;23.382;2023-09-19T12:37:37;8.60;;;4.23;;
6195;SDS011;3131;42.630;23.382;2023-09-19T12:40:07;11.48;;;4.62;;
6195;SDS011;3131;42.630;23.382;2023-09-19T12:42:43;9.70;;;4.33;;
6195;SDS011;3131;42.630;23.382;2023-09-19T12:45:11;6.40;;;4.10;;
6195;SDS011;3131;42.630;23.382;2023-09-19T12:47:41;8.63;;;4.30;;
6195;SDS011;3131;42.630;23.382;2023-09-19T12:50:12;8.08;;;3.60;;
6195;SDS011;3131;42.630;23.382;2023-09-19T12:52:41;8.78;;;4.37;;
6195;SDS011;3131;42.630;23.382;2023-09-19T12:55:18;6.80;;;3.92;;
6195;SDS011;3131;42.630;23.382;2023-09-19T12:57:39;6.53;;;4.35;;
6195;SDS011;3131;42.630;23.382;2023-09-19T13:00:08;7.58;;;3.72;;
6195;SDS011;3131;42.630;23.382;2023-09-19T13:02:37;10.40;;;3.83;;
6195;SDS011;3131;42.630;23.382;2023-09-19T13:05:05;4.50;;;3.55;;
6195;SDS011;3131;42.630;23.382;2023-09-19T13:07:41;10.53;;;4.45;;
6195;SDS011;3131;42.630;23.382;2023-09-19T13:10:13;15.88;;;5.65;;
6195;SDS011;3131;42.630;23.382;2023-09-19T13:12:43;6.08;;;3.92;;
6195;SDS011;3131;42.630;23.382;2023-09-19T13:15:15;8.80;;;4.60;;
6195;SDS011;3131;42.630;23.382;2023-09-19T13:17:44;5.90;;;3.75;;
6195;SDS011;3131;42.630;23.382;2023-09-19T13:20:21;9.60;;;4.12;;
6195;SDS011;3131;42.630;23.382;2023-09-19T13:22:52;8.28;;;4.30;;
6195;SDS011;3131;42.630;23.382;2023-09-19T13:25:21;9.68;;;4.65;;
6195;SDS011;3131;42.630;23.382;2023-09-19T13:27:49;8.40;;;5.28;;
6195;SDS011;3131;42.630;23.382;2023-09-19T13:30:18;8.80;;;4.05;;
6195;SDS011;3131;42.630;23.382;2023-09-19T13:32:46;8.78;;;5.50;;
6195;SDS011;3131;42.630;23.382;2023-09-19T13:35:14;6.35;;;4.15;;
6195;SDS011;3131;42.630;23.382;2023-09-19T13:37:42;7.50;;;4.10;;
6195;SDS011;3131;42.630;23.382;2023-09-19T13:40:12;8.90;;;4.35;;
6195;SDS011;3131;42.630;23.382;2023-09-19T13:42:40;8.43;;;4.10;;
6195;SDS011;3131;42.630;23.382;2023-09-19T13:45:08;13.10;;;4.35;;
6195;SDS011;3131;42.630;23.382;2023-09-19T13:47:38;7.28;;;4.28;;
6195;SDS011;3131;42.630;23.382;2023-09-19T13:50:07;9.60;;;4.95;;
6195;SDS011;3131;42.630;23.382;2023-09-19T13:52:35;6.00;;;4.08;;
6195;SDS011;3131;42.630;23.382;2023-09-19T13:55:03;7.78;;;4.55;;
6195;SDS011;3131;42.630;23.382;2023-09-19T13:57:32;8.10;;;4.42;;
6195;SDS011;3131;42.630;23.382;2023-09-19T14:00:00;14.55;;;5.05;;
6195;SDS011;3131;42.630;23.382;2023-09-19T14:02:28;10.60;;;4.92;;
6195;SDS011;3131;42.630;23.382;2023-09-19T14:04:56;5.80;;;4.42;;
6195;SDS011;3131;42.630;23.382;2023-09-19T14:07:24;6.50;;;3.87;;
6195;SDS011;3131;42.630;23.382;2023-09-19T14:09:52;8.75;;;4.75;;
6195;SDS011;3131;42.630;23.382;2023-09-19T14:12:19;5.85;;;4.37;;
6195;SDS011;3131;42.630;23.382;2023-09-19T14:14:47;10.00;;;3.77;;
6195;SDS011;3131;42.630;23.382;2023-09-19T14:17:16;16.80;;;5.17;;
6195;SDS011;3131;42.630;23.382;2023-09-19T14:19:44;6.90;;;4.25;;
6195;SDS011;3131;42.630;23.382;2023-09-19T14:22:12;6.12;;;4.37;;
6195;SDS011;3131;42.630;23.382;2023-09-19T14:24:40;5.10;;;4.00;;
6195;SDS011;3131;42.630;23.382;2023-09-19T14:27:08;5.08;;;4.53;;
6195;SDS011;3131;42.630;23.382;2023-09-19T14:29:36;9.23;;;4.40;;
6195;SDS011;3131;42.630;23.382;2023-09-19T14:32:05;5.97;;;4.60;;
6195;SDS011;3131;42.630;23.382;2023-09-19T14:34:33;12.15;;;4.47;;
6195;SDS011;3131;42.630;23.382;2023-09-19T14:37:02;5.25;;;4.33;;
6195;SDS011;3131;42.630;23.382;2023-09-19T14:39:30;11.85;;;4.65;;
6195;SDS011;3131;42.630;23.382;2023-09-19T14:41:57;12.75;;;5.92;;
6195;SDS011;3131;42.630;23.382;2023-09-19T14:44:25;9.40;;;4.65;;
6195;SDS011;3131;42.630;23.382;2023-09-19T14:46:54;7.42;;;4.67;;
6195;SDS011;3131;42.630;23.382;2023-09-19T14:49:22;8.28;;;4.92;;
6195;SDS011;3131;42.630;23.382;2023-09-19T14:51:51;8.73;;;4.55;;
6195;SDS011;3131;42.630;23.382;2023-09-19T14:54:18;13.83;;;5.53;;
6195;SDS011;3131;42.630;23.382;2023-09-19T14:56:47;10.40;;;5.00;;
6195;SDS011;3131;42.630;23.382;2023-09-19T14:59:16;7.60;;;4.35;;
6195;SDS011;3131;42.630;23.382;2023-09-19T15:01:43;14.58;;;5.22;;
6195;SDS011;3131;42.630;23.382;2023-09-19T15:04:11;9.83;;;5.63;;
6195;SDS011;3131;42.630;23.382;2023-09-19T15:06:38;8.60;;;5.00;;
6195;SDS011;3131;42.630;23.382;2023-09-19T15:09:06;26.57;;;7.53;;
6195;SDS011;3131;42.630;23.382;2023-09-19T15:11:35;20.07;;;5.63;;
6195;SDS011;3131;42.630;23.382;2023-09-19T15:14:03;10.07;;;4.63;;
6195;SDS011;3131;42.630;23.382;2023-09-19T15:16:31;16.33;;;6.70;;
6195;SDS011;3131;42.630;23.382;2023-09-19T15:18:59;7.87;;;4.57;;
6195;SDS011;3131;42.630;23.382;2023-09-19T15:21:26;9.20;;;5.50;;